createdAt,value
2023-05-15T00:02:22.482Z,97385.16
2023-05-15T00:05:27.731Z,97398.25
2023-05-15T00:08:32.029Z,97391.28
2023-05-15T00:11:35.544Z,97385.84
2023-05-15T00:14:39.516Z,97382.81
2023-05-15T00:17:43.191Z,97374.22
2023-05-15T00:20:48.571Z,97364.47
2023-05-15T00:23:54.215Z,97374.97
2023-05-15T00:26:58.457Z,97367.25
2023-05-15T00:30:02.505Z,97375.06
2023-05-15T00:33:07.889Z,97366.59
2023-05-15T00:36:13.317Z,97362.22
2023-05-15T00:39:17.960Z,97363.81
2023-05-15T00:42:22.109Z,97343.25
2023-05-15T00:45:28.280Z,97347.69
2023-05-15T00:48:34.645Z,97340.25
2023-05-15T00:51:42.078Z,97339.50
2023-05-15T00:54:45.813Z,97345.34
2023-05-15T00:57:50.784Z,97343.59
2023-05-15T01:00:55.208Z,97347.03
2023-05-15T01:03:59.456Z,97338.97
2023-05-15T01:07:05.507Z,97338.31
2023-05-15T01:10:10.830Z,97346.03
2023-05-15T01:13:16.227Z,97350.41
2023-05-15T01:16:23.200Z,97344.50
2023-05-15T01:19:27.405Z,97355.59
2023-05-15T01:22:53.157Z,97360.34
2023-05-15T01:26:33.132Z,97359.38
2023-05-15T01:29:45.484Z,97355.78
2023-05-15T01:32:55.524Z,97361.91
2023-05-15T01:36:06.084Z,97353.78
2023-05-15T01:39:12.389Z,97365.28
2023-05-15T01:42:20.624Z,97364.47
2023-05-15T01:45:30.154Z,97360.47
2023-05-15T01:48:36.627Z,97359.63
2023-05-15T01:51:43.146Z,97353.44
2023-05-15T01:54:49.234Z,97361.06
2023-05-15T01:57:53.771Z,97357.88
2023-05-15T02:01:00.962Z,97349.69
2023-05-15T02:04:05.859Z,97336.47
2023-05-15T02:07:10.958Z,97329.38
2023-05-15T02:10:15.572Z,97308.13
2023-05-15T02:13:26.381Z,97305.94
2023-05-15T02:16:31.857Z,97302.03
2023-05-15T02:19:36.010Z,97293.75
2023-05-15T02:22:42.983Z,97290.50
2023-05-15T02:26:02.047Z,97275.25
2023-05-15T02:29:20.957Z,97271.53
2023-05-15T02:32:32.578Z,97278.19
2023-05-15T02:35:46.951Z,97276.66
2023-05-15T02:38:53.586Z,97295.09
2023-05-15T02:42:01.613Z,97286.34
2023-05-15T02:45:07.448Z,97276.69
2023-05-15T02:48:15.896Z,97294.72
2023-05-15T02:51:20.652Z,97290.81
2023-05-15T02:54:24.842Z,97308.66
2023-05-15T02:57:28.996Z,97322.97
2023-05-15T03:00:32.556Z,97313.84
2023-05-15T03:03:38.416Z,97337.03
2023-05-15T03:06:42.075Z,97335.16
2023-05-15T03:09:46.123Z,97338.84
2023-05-15T03:12:49.889Z,97351.81
2023-05-15T03:15:55.126Z,97357.44
2023-05-15T03:19:00.102Z,97354.28
2023-05-15T03:22:04.328Z,97349.16
2023-05-15T03:25:11.503Z,97354.75
2023-05-15T03:28:15.708Z,97366.13
2023-05-15T03:31:19.268Z,97368.72
2023-05-15T03:34:26.344Z,97379.03
2023-05-15T03:37:30.149Z,97356.84
2023-05-15T03:40:35.497Z,97351.47
2023-05-15T03:43:40.852Z,97346.59
2023-05-15T03:46:45.454Z,97336.03
2023-05-15T03:49:51.026Z,97341.59
2023-05-15T03:52:55.220Z,97335.38
2023-05-15T03:55:58.895Z,97339.88
2023-05-15T03:59:03.538Z,97327.19
2023-05-15T04:02:07.271Z,97315.09
2023-05-15T04:05:12.998Z,97320.22
2023-05-15T04:08:16.921Z,97321.44
2023-05-15T04:11:21.813Z,97328.38
2023-05-15T04:14:25.268Z,97334.81
2023-05-15T04:17:31.277Z,97357.44
2023-05-15T04:20:36.368Z,97340.72
2023-05-15T04:23:41.798Z,97321.91
2023-05-15T04:26:45.503Z,97315.88
2023-05-15T04:29:49.669Z,97327.34
2023-05-15T04:32:53.278Z,97328.53
2023-05-15T04:35:59.074Z,97333.88
2023-05-15T04:39:02.707Z,97354.13
2023-05-15T04:42:07.739Z,97343.16
2023-05-15T04:45:17.082Z,97345.72
2023-05-15T04:48:23.594Z,97344.09
2023-05-15T04:51:31.103Z,97338.78
2023-05-15T04:54:35.149Z,97336.66
2023-05-15T04:57:38.822Z,97327.00
2023-05-15T05:00:42.787Z,97321.53
2023-05-15T05:03:46.267Z,97329.72
2023-05-15T05:06:56.654Z,97333.03
2023-05-15T05:10:00.966Z,97339.69
2023-05-15T05:13:05.244Z,97333.94
2023-05-15T05:16:09.539Z,97339.56
2023-05-15T05:19:14.352Z,97326.88
2023-05-15T05:22:19.674Z,97324.72
2023-05-15T05:25:24.186Z,97292.00
2023-05-15T05:28:28.046Z,97278.47
2023-05-15T05:31:31.997Z,97269.44
2023-05-15T05:34:36.009Z,97266.75
2023-05-15T05:37:41.666Z,97268.84
2023-05-15T05:40:45.180Z,97278.81
2023-05-15T05:43:49.171Z,97280.16
2023-05-15T05:46:54.066Z,97270.53
2023-05-15T05:49:58.214Z,97280.63
2023-05-15T05:53:03.336Z,97296.66
2023-05-15T05:56:09.871Z,97309.56
2023-05-15T05:59:14.726Z,97330.09
2023-05-15T06:02:23.077Z,97349.47
2023-05-15T06:05:27.621Z,97358.19
2023-05-15T06:08:33.079Z,97379.50
2023-05-15T06:11:37.310Z,97375.16
2023-05-15T06:14:41.236Z,97360.69
2023-05-15T06:17:44.786Z,97369.84
2023-05-15T06:20:48.796Z,97382.16
2023-05-15T06:23:53.946Z,97382.22
2023-05-15T06:26:59.016Z,97383.81
2023-05-15T06:30:03.440Z,97378.56
2023-05-15T06:33:09.631Z,97388.94
2023-05-15T06:36:13.556Z,97396.19
2023-05-15T06:39:19.437Z,97378.13
2023-05-15T06:42:23.208Z,97402.59
2023-05-15T06:45:27.911Z,97407.22
2023-05-15T06:48:32.341Z,97390.16
2023-05-15T06:51:36.847Z,97400.97
2023-05-15T06:54:42.919Z,97390.16
2023-05-15T06:57:47.018Z,97368.13
2023-05-15T07:00:50.462Z,97361.38
2023-05-15T07:04:15.965Z,97347.50
2023-05-15T07:07:19.482Z,97340.94
2023-05-15T07:10:27.361Z,97356.22
2023-05-15T07:13:31.303Z,97341.94
2023-05-15T07:16:35.308Z,97344.91
2023-05-15T07:19:39.133Z,97349.81
2023-05-15T07:22:55.104Z,97354.97
2023-05-15T07:26:01.547Z,97368.13
2023-05-15T07:29:07.503Z,97369.97
2023-05-15T07:32:11.405Z,97362.13
2023-05-15T07:35:15.396Z,97362.69
2023-05-15T07:38:18.980Z,97377.81
2023-05-15T07:41:24.505Z,97374.94
2023-05-15T07:44:28.237Z,97385.75
2023-05-15T07:47:32.459Z,97397.13
2023-05-15T07:50:36.195Z,97380.28
2023-05-15T07:53:40.582Z,97379.84
2023-05-15T07:56:46.200Z,97391.00
2023-05-15T07:59:50.285Z,97393.13
2023-05-15T08:02:53.949Z,97384.22
2023-05-15T08:06:00.164Z,97387.09
2023-05-15T08:09:04.665Z,97380.31
2023-05-15T08:12:21.348Z,97380.50
2023-05-15T08:15:25.572Z,97393.91
2023-05-15T08:18:29.989Z,97391.47
2023-05-15T08:21:37.393Z,97406.44
2023-05-15T08:24:44.945Z,97397.25
2023-05-15T08:27:50.091Z,97397.72
2023-05-15T08:30:53.996Z,97396.47
2023-05-15T08:33:57.793Z,97388.66
2023-05-15T08:37:06.093Z,97393.28
2023-05-15T08:40:13.363Z,97385.44
2023-05-15T08:43:22.843Z,97382.16
2023-05-15T08:46:44.049Z,97375.50
2023-05-15T08:50:04.997Z,97371.34
2023-05-15T08:53:12.185Z,97373.25
2023-05-15T08:56:16.375Z,97370.59
2023-05-15T08:59:22.355Z,97376.81
2023-05-15T09:02:27.272Z,97367.28
2023-05-15T09:05:33.596Z,97380.31
2023-05-15T09:08:38.529Z,97372.44
2023-05-15T09:11:45.976Z,97375.06
2023-05-15T09:14:51.572Z,97376.88
2023-05-15T09:17:57.332Z,97353.00
2023-05-15T09:21:26.945Z,97374.16
2023-05-15T09:24:31.668Z,97365.88
2023-05-15T09:27:44.105Z,97371.19
2023-05-15T09:30:49.519Z,97363.47
2023-05-15T09:34:02.159Z,97366.47
2023-05-15T09:37:07.885Z,97368.19
2023-05-15T09:40:15.693Z,97362.69
2023-05-15T09:43:21.775Z,97358.47
2023-05-15T09:46:28.279Z,97345.22
2023-05-15T09:49:33.462Z,97348.31
2023-05-15T09:52:37.863Z,97348.00
2023-05-15T09:55:45.594Z,97344.44
2023-05-15T09:58:56.915Z,97339.16
2023-05-15T10:02:02.137Z,97328.91
2023-05-15T10:05:06.535Z,97318.94
2023-05-15T10:08:10.211Z,97319.16
2023-05-15T10:11:14.126Z,97317.84
2023-05-15T10:14:19.021Z,97326.22
2023-05-15T10:17:25.011Z,97325.53
2023-05-15T10:20:28.761Z,97314.34
2023-05-15T10:23:35.784Z,97321.97
2023-05-15T10:26:41.137Z,97322.00
2023-05-15T10:29:46.528Z,97329.09
2023-05-15T10:32:52.230Z,97329.41
2023-05-15T10:35:57.867Z,97311.44
2023-05-15T10:39:02.738Z,97314.81
2023-05-15T10:42:09.246Z,97304.59
2023-05-15T10:45:13.442Z,97298.78
2023-05-15T10:48:20.606Z,97295.69
2023-05-15T10:51:29.068Z,97290.97
2023-05-15T10:54:33.703Z,97281.03
2023-05-15T10:57:38.833Z,97260.81
2023-05-15T11:00:45.029Z,97263.81
2023-05-15T11:03:51.436Z,97265.97
2023-05-15T11:07:14.388Z,97261.34
2023-05-15T11:10:39.697Z,97265.84
2023-05-15T11:14:15.051Z,97240.88
2023-05-15T11:17:19.946Z,97230.72
2023-05-15T11:20:35.849Z,97226.25
2023-05-15T11:23:42.218Z,97219.72
2023-05-15T11:26:48.296Z,97209.06
2023-05-15T11:30:10.455Z,97195.03
2023-05-15T11:33:14.879Z,97193.13
2023-05-15T11:36:25.497Z,97185.88
2023-05-15T11:39:29.993Z,97179.22
2023-05-15T11:42:38.193Z,97177.97
2023-05-15T11:45:43.161Z,97179.50
2023-05-15T11:48:49.434Z,97172.31
2023-05-15T11:51:57.042Z,97172.63
2023-05-15T11:55:01.533Z,97158.59
2023-05-15T11:58:09.485Z,97160.09
2023-05-15T12:01:14.754Z,97154.94
2023-05-15T12:04:24.609Z,97152.47
2023-05-15T12:07:30.605Z,97168.19
2023-05-15T12:10:41.602Z,97162.31
2023-05-15T12:13:46.478Z,97151.63
2023-05-15T12:16:53.499Z,97156.03
2023-05-15T12:19:58.610Z,97152.59
2023-05-15T12:23:04.527Z,97154.66
2023-05-15T12:26:08.633Z,97144.13
2023-05-15T12:29:13.476Z,97142.44
2023-05-15T12:32:17.785Z,97151.63
2023-05-15T12:35:22.893Z,97151.22
2023-05-15T12:38:28.333Z,97145.88
2023-05-15T12:41:32.740Z,97143.06
2023-05-15T12:44:36.367Z,97145.47
2023-05-15T12:47:40.549Z,97136.13
2023-05-15T12:50:47.370Z,97139.03
2023-05-15T12:53:55.260Z,97130.72
2023-05-15T12:57:00.218Z,97136.41
2023-05-15T13:00:08.083Z,97139.34
2023-05-15T13:03:13.269Z,97143.69
2023-05-15T13:06:17.791Z,97151.75
2023-05-15T13:09:26.602Z,97157.44
2023-05-15T13:12:37.059Z,97152.09
2023-05-15T13:15:44.749Z,97162.41
2023-05-15T13:18:49.068Z,97173.78
2023-05-15T13:21:54.681Z,97165.34
2023-05-15T13:25:00.476Z,97158.22
2023-05-15T13:28:05.926Z,97161.47
2023-05-15T13:31:10.224Z,97159.13
2023-05-15T13:34:13.868Z,97150.38
2023-05-15T13:37:18.199Z,97149.84
2023-05-15T13:40:23.911Z,97146.59
2023-05-15T13:43:29.887Z,97152.00
2023-05-15T13:46:33.592Z,97139.22
2023-05-15T13:49:38.263Z,97124.38
2023-05-15T13:52:52.804Z,97138.81
2023-05-15T13:55:59.423Z,97126.53
2023-05-15T13:59:03.444Z,97120.66
2023-05-15T14:02:07.763Z,97126.31
2023-05-15T14:05:12.396Z,97134.03
2023-05-15T14:08:17.437Z,97113.50
2023-05-15T14:11:22.933Z,97110.34
2023-05-15T14:14:26.957Z,97113.03
2023-05-15T14:17:30.684Z,97114.88
2023-05-15T14:20:35.275Z,97107.75
2023-05-15T14:23:40.153Z,97106.31
2023-05-15T14:26:46.072Z,97093.38
2023-05-15T14:29:50.012Z,97101.28
2023-05-15T14:32:54.579Z,97112.91
2023-05-15T14:36:01.042Z,97121.75
2023-05-15T14:39:06.337Z,97117.41
2023-05-15T14:42:12.732Z,97135.28
2023-05-15T14:45:19.897Z,97138.59
2023-05-15T14:48:25.162Z,97149.06
2023-05-15T14:51:29.707Z,97167.56
2023-05-15T14:54:33.364Z,97162.75
2023-05-15T14:57:39.437Z,97173.09
2023-05-15T15:00:43.138Z,97202.88
2023-05-15T15:03:53.609Z,97231.31
2023-05-15T15:06:58.618Z,97243.91
2023-05-15T15:10:03.058Z,97237.47
2023-05-15T15:13:10.353Z,97236.50
2023-05-15T15:16:15.057Z,97240.75
2023-05-15T15:19:21.574Z,97236.63
2023-05-15T15:22:25.860Z,97245.91
2023-05-15T15:25:32.168Z,97247.41
2023-05-15T15:28:38.863Z,97255.69
2023-05-15T15:31:44.945Z,97257.81
2023-05-15T15:34:49.398Z,97281.25
2023-05-15T15:37:53.516Z,97292.19
2023-05-15T15:40:57.783Z,97297.16
2023-05-15T15:44:03.525Z,97309.41
2023-05-15T15:47:07.625Z,97275.38
2023-05-15T15:50:11.898Z,97248.47
2023-05-15T15:53:16.304Z,97236.34
2023-05-15T15:56:19.919Z,97225.84
2023-05-15T15:59:25.425Z,97217.19
2023-05-15T16:02:29.462Z,97223.91
2023-05-15T16:05:33.788Z,97220.44
2023-05-15T16:08:37.349Z,97229.56
2023-05-15T16:11:41.889Z,97228.38
2023-05-15T16:14:46.973Z,97221.44
2023-05-15T16:17:53.793Z,97206.50
2023-05-15T16:20:58.471Z,97203.81
2023-05-15T16:24:02.700Z,97196.16
2023-05-15T16:27:06.582Z,97185.28
2023-05-15T16:30:14.046Z,97173.47
2023-05-15T16:33:18.733Z,97167.34
2023-05-15T16:36:22.969Z,97174.78
2023-05-15T16:39:27.215Z,97178.03
2023-05-15T16:42:31.188Z,97188.34
2023-05-15T16:45:36.443Z,97177.47
2023-05-15T16:48:40.768Z,97180.69
2023-05-15T16:51:45.362Z,97175.25
2023-05-15T16:54:50.172Z,97163.16
2023-05-15T16:57:54.280Z,97170.78
2023-05-15T17:01:00.433Z,97167.72
2023-05-15T17:04:04.431Z,97168.63
2023-05-15T17:07:09.356Z,97181.44
2023-05-15T17:10:14.352Z,97196.16
2023-05-15T17:13:18.394Z,97199.97
2023-05-15T17:16:25.167Z,97203.47
2023-05-15T17:19:29.060Z,97210.44
2023-05-15T17:22:34.350Z,97204.03
2023-05-15T17:25:38.755Z,97200.16
2023-05-15T17:28:42.317Z,97212.09
2023-05-15T17:31:48.707Z,97220.03
2023-05-15T17:34:53.593Z,97236.34
2023-05-15T17:37:57.839Z,97230.91
2023-05-15T17:41:02.476Z,97217.97
2023-05-15T17:44:07.297Z,97229.28
2023-05-15T17:47:12.257Z,97234.72
2023-05-15T17:50:17.617Z,97234.91
2023-05-15T17:53:22.747Z,97223.50
2023-05-15T17:56:27.477Z,97237.44
2023-05-15T17:59:31.300Z,97231.44
2023-05-15T18:02:36.607Z,97234.72
2023-05-15T18:05:40.132Z,97233.31
2023-05-15T18:08:44.662Z,97246.16
2023-05-15T18:11:48.154Z,97240.38
2023-05-15T18:14:52.309Z,97234.28
2023-05-15T18:17:57.465Z,97241.38
2023-05-15T18:21:02.044Z,97231.03
2023-05-15T18:24:06.050Z,97228.88
2023-05-15T18:27:10.784Z,97234.66
2023-05-15T18:30:15.547Z,97234.13
2023-05-15T18:33:21.702Z,97222.81
2023-05-15T18:36:26.032Z,97232.66
2023-05-15T18:39:30.117Z,97238.53
2023-05-15T18:42:34.092Z,97253.44
2023-05-15T18:45:39.014Z,97258.44
2023-05-15T18:48:44.069Z,97270.72
2023-05-15T18:51:48.032Z,97270.47
2023-05-15T18:54:52.680Z,97277.09
2023-05-15T18:57:57.177Z,97265.09
2023-05-15T19:01:01.848Z,97274.97
2023-05-15T19:04:07.263Z,97269.84
2023-05-15T19:07:11.026Z,97272.75
2023-05-15T19:10:17.463Z,97278.56
2023-05-15T19:13:21.615Z,97279.75
2023-05-15T19:16:28.637Z,97281.75
2023-05-15T19:19:33.869Z,97276.13
2023-05-15T19:22:38.231Z,97282.00
2023-05-15T19:25:41.761Z,97285.19
2023-05-15T19:28:45.645Z,97288.09
2023-05-15T19:31:49.972Z,97287.16
2023-05-15T19:34:56.130Z,97286.00
2023-05-15T19:37:59.944Z,97284.56
2023-05-15T19:41:04.330Z,97291.34
2023-05-15T19:44:08.422Z,97290.25
2023-05-15T19:47:12.242Z,97285.06
2023-05-15T19:50:18.052Z,97283.97
2023-05-15T19:53:22.281Z,97290.09
2023-05-15T19:56:26.689Z,97284.66
2023-05-15T19:59:30.846Z,97280.53
2023-05-15T20:02:34.917Z,97291.16
2023-05-15T20:05:42.201Z,97284.78
2023-05-15T20:08:46.111Z,97282.16
2023-05-15T20:11:50.405Z,97288.69
2023-05-15T20:14:54.263Z,97289.59
2023-05-15T20:17:58.787Z,97283.63
2023-05-15T20:21:04.925Z,97281.31
2023-05-15T20:24:10.601Z,97280.75
2023-05-15T20:27:14.376Z,97274.25
2023-05-15T20:30:18.865Z,97280.28
2023-05-15T20:33:23.723Z,97270.50
2023-05-15T20:36:32.679Z,97271.97
2023-05-15T20:39:36.486Z,97263.91
2023-05-15T20:42:41.039Z,97261.69
2023-05-15T20:45:44.973Z,97263.69
2023-05-15T20:48:49.148Z,97260.78
2023-05-15T20:51:55.597Z,97252.28
2023-05-15T20:55:05.974Z,97245.88
2023-05-15T20:58:10.995Z,97234.81
2023-05-15T21:01:15.432Z,97242.44
2023-05-15T21:04:19.160Z,97237.41
2023-05-15T21:07:24.633Z,97238.16
2023-05-15T21:10:28.492Z,97229.34
2023-05-15T21:13:33.327Z,97226.28
2023-05-15T21:16:37.126Z,97224.81
2023-05-15T21:19:41.706Z,97235.28
2023-05-15T21:22:47.777Z,97227.09
2023-05-15T21:25:51.973Z,97221.72
2023-05-15T21:28:56.699Z,97224.13
2023-05-15T21:32:01.224Z,97221.16
2023-05-15T21:35:05.020Z,97210.31
2023-05-15T21:38:10.687Z,97215.91
2023-05-15T21:41:14.504Z,97217.88
2023-05-15T21:44:18.832Z,97216.38
2023-05-15T21:47:22.765Z,97221.00
2023-05-15T21:50:28.672Z,97221.84
2023-05-15T21:53:34.296Z,97224.69
2023-05-15T21:56:43.083Z,97211.03
2023-05-15T21:59:46.806Z,97213.84
2023-05-15T22:02:51.057Z,97211.41
2023-05-15T22:05:56.583Z,97223.00
2023-05-15T22:09:03.489Z,97216.25
2023-05-15T22:12:07.873Z,97205.72
2023-05-15T22:15:14.679Z,97196.88
2023-05-15T22:18:18.712Z,97206.25
2023-05-15T22:21:35.929Z,97216.38
2023-05-15T22:24:42.571Z,97216.16
2023-05-15T22:27:47.638Z,97218.53
2023-05-15T22:30:59.518Z,97219.72
2023-05-15T22:34:04.883Z,97204.47
2023-05-15T22:37:16.417Z,97190.47
2023-05-15T22:40:23.698Z,97185.59
2023-05-15T22:43:28.328Z,97183.72
2023-05-15T22:46:34.861Z,97185.53
2023-05-15T22:49:39.025Z,97188.19
2023-05-15T22:52:43.340Z,97199.63
2023-05-15T22:55:48.698Z,97190.09
2023-05-15T22:58:56.319Z,97182.84
2023-05-15T23:05:27.758Z,97177.09
2023-05-15T23:08:33.687Z,97187.56
2023-05-15T23:11:41.393Z,97188.00
2023-05-15T23:14:46.303Z,97179.38
2023-05-15T23:17:50.577Z,97186.22
2023-05-15T23:21:03.047Z,97192.72
2023-05-15T23:24:07.692Z,97202.28
2023-05-15T23:27:12.971Z,97204.19
2023-05-15T23:30:17.410Z,97196.13
2023-05-15T23:33:22.123Z,97198.56
2023-05-15T23:36:26.169Z,97201.00
2023-05-15T23:39:29.621Z,97195.97
2023-05-15T23:42:34.708Z,97194.44
2023-05-15T23:45:45.291Z,97185.16
2023-05-15T23:49:03.864Z,97174.47
2023-05-15T23:52:26.250Z,97171.72
2023-05-15T23:59:25.760Z,97150.66
